Aérodrome :
LOGIN :

S'inscrire | Disclaimer

   EN    FR    IT 

 










Légende :    VFR   VFR Marginal   IFR   IFR Intensif   IFR Très Intensif
Visi : 
Plafond : 
>= 8 km
>= 3000ft
5 à 8 km
1000 à 3000 ft
1500m à 5 km
500 à 1000 ft
800 à 1500m
200 à 500 ft
< 800m
< 200 ft
Symboles :   Orages  Brouillard  Fortes neiges  Fortes précipitations  Vent > 20 kt
SIGMETs :   Divers  Orages  Givrage  Turbulence  Onde Orograph.  Cendres Volcan.







- Altitude de l'aérodrome : 160 ft
- Code IATA : FMO


EDDG - Münster Osnabrück Int.

DERNIER METAR :
  • 241220Z 26008KT 9999 FEW009 BKN016 08/06 Q1009 NOSIG

METARs EXPIRÉS :
  • 241150Z 25007KT 9999 SCT009 BKN020 08/06 Q1009 NOSIG
  • 241120Z 26006KT 9999 SCT006 BKN024 08/07 Q1009 NOSIG
  • 241050Z 26007KT 9999 -RA SCT006 BKN020 07/06 Q1009 NOSIG
  • 241020Z 24005KT 9999 -RA FEW005 BKN017 07/07 Q1009 NOSIG
  • 240950Z 25003KT 9999 SCT023 BKN034 07/06 Q1008 NOSIG

TAF TAF EDDG
Valide du 24 à 12h jusqu'au 25 à 12h UTC


241100Z 2412/2512 25005KT 9999 BKN020
TEMPO 2412/2414 BKN008
BECMG 2414/2417 VRB03KT
TEMPO 2421/2501 2000 BR BKN008
BECMG 2501/2504 BKN008
TEMPO 2501/2508 0900 FG BKN004
BECMG 2508/2511 BKN012
Pas de NOTAMs connus pour ce terrain.



MET'MAP, la Météo Aéronautique d'un coup d'oeil ! - Copyright ORBIFLY Décembre 2007 - Disclaimer

ORBIFLY MET'MAP TEAM :

Programmation & Développement : Alexandra Zaïnal
Conception & Développement : Baudouin d'Aumeries
Co-Programmation & Développement : Marc-Olivier Méhu
Soutien technique & logistique : Manuel Goepfert

Contact : metmap@orbifly.com




SOURCES & CREDITS :

   NOAA